sensor_id;sensor_type;location;lat;lon;timestamp;pressure;altitude;pressure_sealevel;temperature;humidity
64053;BME280;50299;49.524;8.536;2022-08-21T00:00:19;100571.53;;;13.97;47.10
64053;BME280;50299;49.524;8.536;2022-08-21T00:02:52;100575.72;;;13.91;48.01
64053;BME280;50299;49.524;8.536;2022-08-21T00:05:19;100576.53;;;13.91;48.42
64053;BME280;50299;49.524;8.536;2022-08-21T00:07:46;100561.59;;;13.71;48.88
64053;BME280;50299;49.524;8.536;2022-08-21T00:10:13;100575.72;;;13.54;48.89
64053;BME280;50299;49.524;8.536;2022-08-21T00:12:40;100576.72;;;13.37;48.82
64053;BME280;50299;49.524;8.536;2022-08-21T00:15:08;100576.00;;;13.28;50.06
64053;BME280;50299;49.524;8.536;2022-08-21T00:17:37;100571.94;;;13.13;49.63
64053;BME280;50299;49.524;8.536;2022-08-21T00:20:06;100572.53;;;12.86;50.39
64053;BME280;50299;49.524;8.536;2022-08-21T00:22:35;100563.34;;;13.06;50.86
64053;BME280;50299;49.524;8.536;2022-08-21T00:25:04;100568.25;;;13.21;54.26
64053;BME280;50299;49.524;8.536;2022-08-21T00:27:31;100569.41;;;13.32;52.46
64053;BME280;50299;49.524;8.536;2022-08-21T00:29:58;100559.47;;;13.31;50.98
64053;BME280;50299;49.524;8.536;2022-08-21T00:32:26;100566.06;;;13.39;52.61
64053;BME280;50299;49.524;8.536;2022-08-21T00:34:53;100554.59;;;13.41;51.36
64053;BME280;50299;49.524;8.536;2022-08-21T00:37:19;100563.16;;;13.36;51.71
64053;BME280;50299;49.524;8.536;2022-08-21T00:39:46;100562.25;;;13.31;52.43
64053;BME280;50299;49.524;8.536;2022-08-21T00:42:13;100574.16;;;13.44;53.63
64053;BME280;50299;49.524;8.536;2022-08-21T00:44:45;100565.88;;;13.56;54.96
64053;BME280;50299;49.524;8.536;2022-08-21T00:47:12;100568.44;;;13.62;61.64
64053;BME280;50299;49.524;8.536;2022-08-21T00:49:39;100571.50;;;13.48;50.49
64053;BME280;50299;49.524;8.536;2022-08-21T00:52:12;100563.59;;;13.13;50.26
64053;BME280;50299;49.524;8.536;2022-08-21T00:54:40;100570.25;;;12.67;51.25
64053;BME280;50299;49.524;8.536;2022-08-21T00:57:17;100567.69;;;12.41;51.39
64053;BME280;50299;49.524;8.536;2022-08-21T00:59:52;100563.69;;;11.88;53.14
64053;BME280;50299;49.524;8.536;2022-08-21T01:02:21;100564.63;;;11.92;53.44
64053;BME280;50299;49.524;8.536;2022-08-21T01:04:48;100553.91;;;11.90;53.74
64053;BME280;50299;49.524;8.536;2022-08-21T01:07:15;100563.31;;;11.98;54.77
64053;BME280;50299;49.524;8.536;2022-08-21T01:09:42;100569.94;;;12.05;53.59
64053;BME280;50299;49.524;8.536;2022-08-21T01:12:08;100563.25;;;12.06;55.22
64053;BME280;50299;49.524;8.536;2022-08-21T01:14:36;100569.53;;;12.16;58.55
64053;BME280;50299;49.524;8.536;2022-08-21T01:17:02;100567.91;;;12.36;55.63
64053;BME280;50299;49.524;8.536;2022-08-21T01:19:30;100567.63;;;12.49;54.58
64053;BME280;50299;49.524;8.536;2022-08-21T01:21:57;100571.03;;;12.55;53.95
64053;BME280;50299;49.524;8.536;2022-08-21T01:24:23;100569.00;;;12.64;56.49
64053;BME280;50299;49.524;8.536;2022-08-21T01:26:50;100557.56;;;12.66;55.02
64053;BME280;50299;49.524;8.536;2022-08-21T01:29:32;100561.00;;;12.63;52.82
64053;BME280;50299;49.524;8.536;2022-08-21T01:32:08;100565.34;;;12.51;53.91
64053;BME280;50299;49.524;8.536;2022-08-21T01:34:36;100558.13;;;12.38;53.06
64053;BME280;50299;49.524;8.536;2022-08-21T01:37:03;100564.91;;;11.99;53.75
64053;BME280;50299;49.524;8.536;2022-08-21T01:39:31;100565.75;;;11.70;55.12
64053;BME280;50299;49.524;8.536;2022-08-21T01:41:57;100563.34;;;11.51;55.08
64053;BME280;50299;49.524;8.536;2022-08-21T01:44:24;100562.81;;;11.28;55.25
64053;BME280;50299;49.524;8.536;2022-08-21T01:46:52;100566.00;;;10.92;56.98
64053;BME280;50299;49.524;8.536;2022-08-21T01:49:19;100565.63;;;11.10;59.85
64053;BME280;50299;49.524;8.536;2022-08-21T01:51:46;100563.03;;;11.52;60.49
64053;BME280;50299;49.524;8.536;2022-08-21T01:54:12;100560.97;;;11.79;58.75
64053;BME280;50299;49.524;8.536;2022-08-21T01:56:43;100563.50;;;11.93;56.38
64053;BME280;50299;49.524;8.536;2022-08-21T01:59:10;100567.03;;;12.02;55.64
64053;BME280;50299;49.524;8.536;2022-08-21T02:01:37;100562.16;;;11.99;53.79
64053;BME280;50299;49.524;8.536;2022-08-21T02:04:07;100563.16;;;11.94;54.64
64053;BME280;50299;49.524;8.536;2022-08-21T02:06:34;100564.22;;;11.81;54.25
64053;BME280;50299;49.524;8.536;2022-08-21T02:09:03;100551.25;;;11.64;54.65
64053;BME280;50299;49.524;8.536;2022-08-21T02:11:30;100547.69;;;11.55;54.88
64053;BME280;50299;49.524;8.536;2022-08-21T02:13:56;100545.47;;;11.48;55.14
64053;BME280;50299;49.524;8.536;2022-08-21T02:16:24;100543.06;;;11.38;54.63
64053;BME280;50299;49.524;8.536;2022-08-21T02:18:50;100541.28;;;11.33;55.48
64053;BME280;50299;49.524;8.536;2022-08-21T02:21:17;100539.44;;;11.46;55.22
64053;BME280;50299;49.524;8.536;2022-08-21T02:23:44;100540.19;;;11.64;56.34
64053;BME280;50299;49.524;8.536;2022-08-21T02:26:11;100539.81;;;11.74;54.07
64053;BME280;50299;49.524;8.536;2022-08-21T02:28:39;100538.06;;;11.70;54.42
64053;BME280;50299;49.524;8.536;2022-08-21T02:31:06;100540.09;;;11.52;53.78
64053;BME280;50299;49.524;8.536;2022-08-21T02:33:33;100541.63;;;11.32;55.04
64053;BME280;50299;49.524;8.536;2022-08-21T02:36:00;100543.91;;;11.30;55.34
64053;BME280;50299;49.524;8.536;2022-08-21T02:38:30;100534.06;;;11.12;55.76
64053;BME280;50299;49.524;8.536;2022-08-21T02:40:59;100538.97;;;10.97;56.03
64053;BME280;50299;49.524;8.536;2022-08-21T02:43:27;100544.22;;;10.81;56.66
64053;BME280;50299;49.524;8.536;2022-08-21T02:45:56;100539.03;;;10.63;57.15
64053;BME280;50299;49.524;8.536;2022-08-21T02:48:26;100535.44;;;10.79;61.06
64053;BME280;50299;49.524;8.536;2022-08-21T02:50:59;100534.13;;;10.85;57.83
64053;BME280;50299;49.524;8.536;2022-08-21T02:53:26;100533.16;;;10.81;57.89
64053;BME280;50299;49.524;8.536;2022-08-21T02:55:55;100538.53;;;10.87;56.75
64053;BME280;50299;49.524;8.536;2022-08-21T02:58:27;100530.38;;;10.64;56.87
64053;BME280;50299;49.524;8.536;2022-08-21T03:00:54;100533.19;;;10.47;57.43
64053;BME280;50299;49.524;8.536;2022-08-21T03:03:20;100531.88;;;10.27;57.82
64053;BME280;50299;49.524;8.536;2022-08-21T03:05:47;100531.88;;;10.27;59.13
64053;BME280;50299;49.524;8.536;2022-08-21T03:08:15;100529.13;;;10.27;57.82
64053;BME280;50299;49.524;8.536;2022-08-21T03:10:45;100521.50;;;10.32;58.15
64053;BME280;50299;49.524;8.536;2022-08-21T03:13:13;100526.19;;;10.49;57.88
64053;BME280;50299;49.524;8.536;2022-08-21T03:15:40;100525.38;;;10.49;56.80
64053;BME280;50299;49.524;8.536;2022-08-21T03:18:08;100528.97;;;10.41;57.28
64053;BME280;50299;49.524;8.536;2022-08-21T03:20:36;100522.16;;;10.12;59.61
64053;BME280;50299;49.524;8.536;2022-08-21T03:23:03;100529.22;;;9.78;61.14
64053;BME280;50299;49.524;8.536;2022-08-21T03:25:38;100534.19;;;9.50;62.49
64053;BME280;50299;49.524;8.536;2022-08-21T03:28:10;100533.53;;;9.53;63.50
64053;BME280;50299;49.524;8.536;2022-08-21T03:30:40;100535.13;;;9.46;61.82
64053;BME280;50299;49.524;8.536;2022-08-21T03:33:07;100536.59;;;9.43;62.34
64053;BME280;50299;49.524;8.536;2022-08-21T03:35:33;100540.63;;;9.46;61.17
64053;BME280;50299;49.524;8.536;2022-08-21T03:38:00;100538.38;;;9.48;62.71
64053;BME280;50299;49.524;8.536;2022-08-21T03:40:26;100538.00;;;9.80;65.63
64053;BME280;50299;49.524;8.536;2022-08-21T03:42:52;100535.72;;;9.82;59.36
64053;BME280;50299;49.524;8.536;2022-08-21T03:45:19;100537.22;;;9.80;59.29
64053;BME280;50299;49.524;8.536;2022-08-21T03:47:58;100534.94;;;9.82;59.27
64053;BME280;50299;49.524;8.536;2022-08-21T03:50:29;100534.00;;;9.95;64.69
64053;BME280;50299;49.524;8.536;2022-08-21T03:52:56;100540.16;;;10.18;59.70
64053;BME280;50299;49.524;8.536;2022-08-21T03:55:23;100536.59;;;10.18;61.20
64053;BME280;50299;49.524;8.536;2022-08-21T03:57:49;100549.25;;;10.36;64.37
64053;BME280;50299;49.524;8.536;2022-08-21T04:00:17;100542.63;;;10.28;59.66
64053;BME280;50299;49.524;8.536;2022-08-21T04:02:45;100541.66;;;10.33;59.08
64053;BME280;50299;49.524;8.536;2022-08-21T04:05:14;100553.97;;;10.35;60.05
64053;BME280;50299;49.524;8.536;2022-08-21T04:08:04;100546.66;;;10.48;60.67
64053;BME280;50299;49.524;8.536;2022-08-21T04:10:32;100551.38;;;10.56;60.04
64053;BME280;50299;49.524;8.536;2022-08-21T04:13:01;100560.63;;;10.69;62.74
64053;BME280;50299;49.524;8.536;2022-08-21T04:15:27;100562.28;;;10.70;63.18
64053;BME280;50299;49.524;8.536;2022-08-21T04:17:54;100560.97;;;10.76;65.40
64053;BME280;50299;49.524;8.536;2022-08-21T04:20:22;100574.16;;;10.79;64.83
64053;BME280;50299;49.524;8.536;2022-08-21T04:22:49;100566.97;;;10.09;61.60
64053;BME280;50299;49.524;8.536;2022-08-21T04:25:18;100580.66;;;9.66;61.71
64053;BME280;50299;49.524;8.536;2022-08-21T04:27:45;100575.63;;;9.28;63.94
64053;BME280;50299;49.524;8.536;2022-08-21T04:30:13;100576.25;;;9.25;63.41
64053;BME280;50299;49.524;8.536;2022-08-21T04:32:48;100577.22;;;9.20;63.33
64053;BME280;50299;49.524;8.536;2022-08-21T04:35:18;100584.22;;;8.95;63.55
64053;BME280;50299;49.524;8.536;2022-08-21T04:37:45;100590.28;;;8.83;66.77
64053;BME280;50299;49.524;8.536;2022-08-21T04:40:13;100586.50;;;9.33;76.12
64053;BME280;50299;49.524;8.536;2022-08-21T04:42:48;100590.31;;;9.85;68.09
64053;BME280;50299;49.524;8.536;2022-08-21T04:45:18;100587.59;;;10.11;70.01
64053;BME280;50299;49.524;8.536;2022-08-21T04:47:48;100586.34;;;10.26;66.10
64053;BME280;50299;49.524;8.536;2022-08-21T04:50:20;100586.50;;;10.47;65.35
64053;BME280;50299;49.524;8.536;2022-08-21T04:52:48;100590.41;;;10.38;63.56
64053;BME280;50299;49.524;8.536;2022-08-21T04:55:16;100592.66;;;10.09;60.42
64053;BME280;50299;49.524;8.536;2022-08-21T04:57:43;100595.38;;;9.83;60.80
64053;BME280;50299;49.524;8.536;2022-08-21T05:00:15;100586.59;;;9.99;64.45
64053;BME280;50299;49.524;8.536;2022-08-21T05:02:45;100587.63;;;10.20;64.60
64053;BME280;50299;49.524;8.536;2022-08-21T05:05:14;100594.78;;;10.30;64.63
64053;BME280;50299;49.524;8.536;2022-08-21T05:07:42;100589.94;;;10.53;65.43
64053;BME280;50299;49.524;8.536;2022-08-21T05:10:10;100597.44;;;10.78;65.92
64053;BME280;50299;49.524;8.536;2022-08-21T05:12:40;100597.84;;;10.98;64.41
64053;BME280;50299;49.524;8.536;2022-08-21T05:15:09;100591.53;;;10.97;63.32
64053;BME280;50299;49.524;8.536;2022-08-21T05:17:41;100598.84;;;11.10;66.57
64053;BME280;50299;49.524;8.536;2022-08-21T05:20:09;100608.13;;;11.53;65.56
64053;BME280;50299;49.524;8.536;2022-08-21T05:22:36;100607.03;;;11.83;66.88
64053;BME280;50299;49.524;8.536;2022-08-21T05:25:04;100612.94;;;12.32;68.67
64053;BME280;50299;49.524;8.536;2022-08-21T05:27:37;100616.66;;;12.78;67.04
64053;BME280;50299;49.524;8.536;2022-08-21T05:30:07;100613.59;;;13.25;65.76
64053;BME280;50299;49.524;8.536;2022-08-21T05:32:35;100610.78;;;13.71;64.52
64053;BME280;50299;49.524;8.536;2022-08-21T05:35:06;100603.94;;;14.05;61.11
64053;BME280;50299;49.524;8.536;2022-08-21T05:37:34;100612.84;;;14.11;57.98
64053;BME280;50299;49.524;8.536;2022-08-21T05:40:01;100608.44;;;14.10;55.24
64053;BME280;50299;49.524;8.536;2022-08-21T05:42:49;100606.81;;;14.21;58.00
64053;BME280;50299;49.524;8.536;2022-08-21T05:45:24;100610.38;;;14.46;57.67
64053;BME280;50299;49.524;8.536;2022-08-21T05:48:14;100610.75;;;14.72;57.94
64053;BME280;50299;49.524;8.536;2022-08-21T05:50:41;100608.75;;;15.13;61.06
64053;BME280;50299;49.524;8.536;2022-08-21T05:53:09;100609.41;;;15.70;59.70
64053;BME280;50299;49.524;8.536;2022-08-21T05:55:36;100608.63;;;16.20;59.42
64053;BME280;50299;49.524;8.536;2022-08-21T05:58:09;100609.88;;;16.58;57.35
64053;BME280;50299;49.524;8.536;2022-08-21T06:00:36;100610.38;;;17.02;56.41
64053;BME280;50299;49.524;8.536;2022-08-21T06:03:03;100614.09;;;17.30;52.87
64053;BME280;50299;49.524;8.536;2022-08-21T06:05:30;100615.44;;;17.59;52.07
64053;BME280;50299;49.524;8.536;2022-08-21T06:08:03;100614.84;;;17.95;51.63
64053;BME280;50299;49.524;8.536;2022-08-21T06:10:29;100611.16;;;18.14;45.13
64053;BME280;50299;49.524;8.536;2022-08-21T06:12:56;100617.69;;;18.25;44.53
64053;BME280;50299;49.524;8.536;2022-08-21T06:15:22;100611.63;;;18.50;44.41
64053;BME280;50299;49.524;8.536;2022-08-21T06:17:49;100608.34;;;18.74;45.06
64053;BME280;50299;49.524;8.536;2022-08-21T06:20:15;100607.41;;;18.93;42.50
64053;BME280;50299;49.524;8.536;2022-08-21T06:22:42;100609.19;;;19.09;44.92
64053;BME280;50299;49.524;8.536;2022-08-21T06:25:08;100609.09;;;19.39;42.00
64053;BME280;50299;49.524;8.536;2022-08-21T06:27:35;100607.25;;;19.57;40.74
64053;BME280;50299;49.524;8.536;2022-08-21T06:30:04;100605.38;;;19.68;40.89
64053;BME280;50299;49.524;8.536;2022-08-21T06:32:31;100608.22;;;19.76;41.70
64053;BME280;50299;49.524;8.536;2022-08-21T06:34:57;100610.50;;;20.11;40.03
64053;BME280;50299;49.524;8.536;2022-08-21T06:37:23;100611.84;;;20.31;39.79
64053;BME280;50299;49.524;8.536;2022-08-21T06:39:50;100615.56;;;20.53;37.90
64053;BME280;50299;49.524;8.536;2022-08-21T06:42:19;100617.69;;;20.74;38.04
64053;BME280;50299;49.524;8.536;2022-08-21T06:44:45;100613.78;;;21.04;38.43
64053;BME280;50299;49.524;8.536;2022-08-21T06:47:12;100614.19;;;21.13;35.50
64053;BME280;50299;49.524;8.536;2022-08-21T06:49:39;100609.41;;;21.20;35.86
64053;BME280;50299;49.524;8.536;2022-08-21T06:52:12;100611.00;;;21.11;34.54
64053;BME280;50299;49.524;8.536;2022-08-21T06:54:42;100616.28;;;21.41;37.07
64053;BME280;50299;49.524;8.536;2022-08-21T06:57:09;100615.06;;;21.42;34.16
64053;BME280;50299;49.524;8.536;2022-08-21T06:59:35;100617.09;;;21.70;35.44
64053;BME280;50299;49.524;8.536;2022-08-21T07:02:02;100622.72;;;21.95;35.28
64053;BME280;50299;49.524;8.536;2022-08-21T07:04:28;100614.63;;;22.29;33.75
64053;BME280;50299;49.524;8.536;2022-08-21T07:06:55;100617.00;;;22.41;34.28
64053;BME280;50299;49.524;8.536;2022-08-21T07:09:21;100620.63;;;22.46;33.07
64053;BME280;50299;49.524;8.536;2022-08-21T07:11:52;100612.97;;;22.64;34.31
64053;BME280;50299;49.524;8.536;2022-08-21T07:14:19;100616.56;;;22.68;30.79
64053;BME280;50299;49.524;8.536;2022-08-21T07:16:46;100615.59;;;23.00;30.91
64053;BME280;50299;49.524;8.536;2022-08-21T07:19:15;100606.63;;;23.19;30.04
64053;BME280;50299;49.524;8.536;2022-08-21T07:21:45;100600.22;;;23.11;30.23
64053;BME280;50299;49.524;8.536;2022-08-21T07:24:12;100609.13;;;22.99;30.28
64053;BME280;50299;49.524;8.536;2022-08-21T07:26:39;100602.88;;;22.66;29.47
64053;BME280;50299;49.524;8.536;2022-08-21T07:29:06;100603.59;;;22.81;32.23
64053;BME280;50299;49.524;8.536;2022-08-21T07:31:32;100588.88;;;23.26;31.76
64053;BME280;50299;49.524;8.536;2022-08-21T07:33:59;100588.53;;;23.69;30.05
64053;BME280;50299;49.524;8.536;2022-08-21T07:36:25;100591.94;;;23.94;30.22
64053;BME280;50299;49.524;8.536;2022-08-21T07:38:52;100590.09;;;24.18;30.45
64053;BME280;50299;49.524;8.536;2022-08-21T07:41:23;100593.03;;;24.45;28.97
64053;BME280;50299;49.524;8.536;2022-08-21T07:43:50;100601.69;;;24.65;29.42
64053;BME280;50299;49.524;8.536;2022-08-21T07:46:18;100599.84;;;24.85;28.03
64053;BME280;50299;49.524;8.536;2022-08-21T07:48:47;100590.28;;;24.72;30.09
64053;BME280;50299;49.524;8.536;2022-08-21T07:51:16;100591.94;;;24.70;27.77
64053;BME280;50299;49.524;8.536;2022-08-21T07:53:51;100596.31;;;24.74;28.11
64053;BME280;50299;49.524;8.536;2022-08-21T07:56:19;100591.66;;;24.60;27.41
64053;BME280;50299;49.524;8.536;2022-08-21T07:58:46;100597.81;;;24.86;27.45
64053;BME280;50299;49.524;8.536;2022-08-21T08:01:17;100598.44;;;24.67;27.51
64053;BME280;50299;49.524;8.536;2022-08-21T08:03:47;100591.84;;;24.77;27.79
64053;BME280;50299;49.524;8.536;2022-08-21T08:06:14;100594.88;;;24.93;27.01
64053;BME280;50299;49.524;8.536;2022-08-21T08:08:46;100593.38;;;24.51;27.16
64053;BME280;50299;49.524;8.536;2022-08-21T08:11:18;100589.75;;;24.50;28.60
64053;BME280;50299;49.524;8.536;2022-08-21T08:13:47;100588.06;;;24.56;27.56
64053;BME280;50299;49.524;8.536;2022-08-21T08:16:15;100597.88;;;24.79;28.06
64053;BME280;50299;49.524;8.536;2022-08-21T08:18:44;100593.34;;;25.16;26.70
64053;BME280;50299;49.524;8.536;2022-08-21T08:21:12;100586.19;;;25.34;28.54
64053;BME280;50299;49.524;8.536;2022-08-21T08:23:39;100580.94;;;25.33;26.23
64053;BME280;50299;49.524;8.536;2022-08-21T08:26:06;100580.59;;;25.31;25.96
64053;BME280;50299;49.524;8.536;2022-08-21T08:28:33;100582.03;;;25.43;25.61
64053;BME280;50299;49.524;8.536;2022-08-21T08:31:00;100579.94;;;25.20;26.38
64053;BME280;50299;49.524;8.536;2022-08-21T08:33:27;100572.16;;;25.27;26.29
64053;BME280;50299;49.524;8.536;2022-08-21T08:35:54;100566.63;;;24.93;27.44
64053;BME280;50299;49.524;8.536;2022-08-21T08:38:46;100573.06;;;24.94;27.90
64053;BME280;50299;49.524;8.536;2022-08-21T08:41:37;100561.44;;;25.15;27.09
64053;BME280;50299;49.524;8.536;2022-08-21T08:44:28;100564.63;;;25.68;26.78
64053;BME280;50299;49.524;8.536;2022-08-21T08:47:19;100556.09;;;25.91;26.44
64053;BME280;50299;49.524;8.536;2022-08-21T08:50:23;100559.91;;;26.48;24.77
64053;BME280;50299;49.524;8.536;2022-08-21T08:54:04;100552.94;;;26.89;24.32
64053;BME280;50299;49.524;8.536;2022-08-21T08:56:31;100547.16;;;27.45;23.74
64053;BME280;50299;49.524;8.536;2022-08-21T08:59:26;100552.53;;;27.23;24.48
64053;BME280;50299;49.524;8.536;2022-08-21T09:02:19;100545.44;;;26.62;24.47
64053;BME280;50299;49.524;8.536;2022-08-21T09:09:14;100542.34;;;26.73;25.04
64053;BME280;50299;49.524;8.536;2022-08-21T09:19:04;100530.06;;;27.48;24.05
64053;BME280;50299;49.524;8.536;2022-08-21T13:31:36;100363.59;;;27.84;19.04
64053;BME280;50299;49.524;8.536;2022-08-21T13:34:04;100364.00;;;28.49;18.69
64053;BME280;50299;49.524;8.536;2022-08-21T13:36:34;100367.19;;;28.64;18.19
64053;BME280;50299;49.524;8.536;2022-08-21T13:39:07;100362.66;;;29.36;17.66
64053;BME280;50299;49.524;8.536;2022-08-21T13:41:36;100367.16;;;29.24;17.69
64053;BME280;50299;49.524;8.536;2022-08-21T13:44:22;100367.81;;;28.94;17.38
64053;BME280;50299;49.524;8.536;2022-08-21T13:46:55;100358.97;;;28.79;18.02
64053;BME280;50299;49.524;8.536;2022-08-21T13:49:27;100368.28;;;29.27;17.56
64053;BME280;50299;49.524;8.536;2022-08-21T13:52:25;100363.38;;;30.46;16.20
64053;BME280;50299;49.524;8.536;2022-08-21T13:55:16;100339.72;;;31.51;15.28
64053;BME280;50299;49.524;8.536;2022-08-21T13:58:09;100350.69;;;32.13;15.65
64053;BME280;50299;49.524;8.536;2022-08-21T14:01:00;100343.44;;;32.03;14.75
64053;BME280;50299;49.524;8.536;2022-08-21T14:03:55;100340.50;;;30.78;16.26
64053;BME280;50299;49.524;8.536;2022-08-21T14:06:48;100342.13;;;31.15;16.22
64053;BME280;50299;49.524;8.536;2022-08-21T14:09:42;100335.75;;;32.27;15.15
64053;BME280;50299;49.524;8.536;2022-08-21T14:12:46;100334.47;;;32.85;14.34
64053;BME280;50299;49.524;8.536;2022-08-21T14:15:38;100333.63;;;31.76;15.15
64053;BME280;50299;49.524;8.536;2022-08-21T14:18:29;100326.66;;;32.29;15.45
64053;BME280;50299;49.524;8.536;2022-08-21T14:21:29;100329.66;;;32.67;14.48
64053;BME280;50299;49.524;8.536;2022-08-21T14:27:16;100317.19;;;32.23;14.86
64053;BME280;50299;49.524;8.536;2022-08-21T14:30:20;100322.28;;;30.93;15.95
64053;BME280;50299;49.524;8.536;2022-08-21T16:22:33;100255.25;;;34.30;12.37
64053;BME280;50299;49.524;8.536;2022-08-21T16:25:10;100261.00;;;34.30;12.55
64053;BME280;50299;49.524;8.536;2022-08-21T16:27:37;100254.50;;;34.71;12.19
64053;BME280;50299;49.524;8.536;2022-08-21T16:30:06;100247.91;;;35.63;11.35
64053;BME280;50299;49.524;8.536;2022-08-21T16:32:32;100252.34;;;35.96;11.18
64053;BME280;50299;49.524;8.536;2022-08-21T16:35:01;100247.88;;;35.57;11.87
64053;BME280;50299;49.524;8.536;2022-08-21T16:37:27;100249.13;;;34.58;12.03
64053;BME280;50299;49.524;8.536;2022-08-21T16:39:54;100251.38;;;31.99;14.50
64053;BME280;50299;49.524;8.536;2022-08-21T16:42:23;100248.91;;;32.63;13.55
64053;BME280;50299;49.524;8.536;2022-08-21T16:44:49;100241.97;;;33.18;13.50
64053;BME280;50299;49.524;8.536;2022-08-21T16:47:17;100233.59;;;32.52;13.69
64053;BME280;50299;49.524;8.536;2022-08-21T16:49:52;100228.84;;;31.31;14.65
64053;BME280;50299;49.524;8.536;2022-08-21T16:52:19;100234.16;;;30.09;15.79
64053;BME280;50299;49.524;8.536;2022-08-21T16:54:45;100233.72;;;29.48;16.20
64053;BME280;50299;49.524;8.536;2022-08-21T16:57:12;100233.88;;;29.23;16.35
64053;BME280;50299;49.524;8.536;2022-08-21T16:59:40;100232.94;;;28.09;17.47
64053;BME280;50299;49.524;8.536;2022-08-21T17:02:28;100229.72;;;27.01;18.71
64053;BME280;50299;49.524;8.536;2022-08-21T17:04:57;100227.19;;;26.91;18.53
64053;BME280;50299;49.524;8.536;2022-08-21T17:07:24;100227.50;;;26.64;18.89
64053;BME280;50299;49.524;8.536;2022-08-21T17:09:50;100217.94;;;26.57;19.00
64053;BME280;50299;49.524;8.536;2022-08-21T17:12:17;100223.88;;;26.30;19.64
64053;BME280;50299;49.524;8.536;2022-08-21T17:15:17;100221.72;;;25.85;20.47
64053;BME280;50299;49.524;8.536;2022-08-21T17:18:11;100226.41;;;25.20;20.66
64053;BME280;50299;49.524;8.536;2022-08-21T18:22:10;100222.72;;;21.16;27.94
64053;BME280;50299;49.524;8.536;2022-08-21T18:24:37;100230.03;;;20.95;28.78
64053;BME280;50299;49.524;8.536;2022-08-21T18:27:05;100219.22;;;20.80;29.21
64053;BME280;50299;49.524;8.536;2022-08-21T18:29:33;100221.22;;;20.65;29.48
64053;BME280;50299;49.524;8.536;2022-08-21T18:32:01;100237.31;;;20.39;29.59
64053;BME280;50299;49.524;8.536;2022-08-21T18:34:35;100233.72;;;20.21;29.88
64053;BME280;50299;49.524;8.536;2022-08-21T18:37:03;100236.09;;;20.15;29.83
64053;BME280;50299;49.524;8.536;2022-08-21T18:39:30;100240.09;;;20.04;30.11
64053;BME280;50299;49.524;8.536;2022-08-21T18:42:07;100237.28;;;19.93;30.27
64053;BME280;50299;49.524;8.536;2022-08-21T18:44:34;100240.84;;;19.76;30.68
64053;BME280;50299;49.524;8.536;2022-08-21T18:47:08;100234.31;;;19.43;31.04
64053;BME280;50299;49.524;8.536;2022-08-21T18:49:37;100237.44;;;19.23;31.44
64053;BME280;50299;49.524;8.536;2022-08-21T18:52:04;100243.00;;;19.16;31.66
64053;BME280;50299;49.524;8.536;2022-08-21T18:54:31;100248.22;;;19.14;31.83
64053;BME280;50299;49.524;8.536;2022-08-21T18:57:02;100248.59;;;19.09;32.06
64053;BME280;50299;49.524;8.536;2022-08-21T18:59:31;100251.75;;;19.04;31.96
64053;BME280;50299;49.524;8.536;2022-08-21T19:01:58;100258.59;;;19.10;32.48
64053;BME280;50299;49.524;8.536;2022-08-21T19:04:26;100258.22;;;19.15;32.63
64053;BME280;50299;49.524;8.536;2022-08-21T19:07:09;100260.97;;;19.01;32.05
64053;BME280;50299;49.524;8.536;2022-08-21T19:09:38;100258.06;;;18.87;32.48
64053;BME280;50299;49.524;8.536;2022-08-21T19:12:05;100259.22;;;18.79;32.48
64053;BME280;50299;49.524;8.536;2022-08-21T19:14:37;100259.56;;;18.73;32.84
64053;BME280;50299;49.524;8.536;2022-08-21T19:17:04;100263.06;;;18.63;33.45
64053;BME280;50299;49.524;8.536;2022-08-21T19:19:30;100267.00;;;18.55;33.05
64053;BME280;50299;49.524;8.536;2022-08-21T19:21:57;100258.97;;;18.50;32.75
64053;BME280;50299;49.524;8.536;2022-08-21T19:24:27;100258.16;;;18.46;33.14
64053;BME280;50299;49.524;8.536;2022-08-21T19:26:54;100257.69;;;18.37;33.41
64053;BME280;50299;49.524;8.536;2022-08-21T19:29:21;100261.97;;;18.23;34.09
64053;BME280;50299;49.524;8.536;2022-08-21T19:32:08;100262.63;;;18.10;33.75
64053;BME280;50299;49.524;8.536;2022-08-21T19:34:36;100262.91;;;18.01;34.26
64053;BME280;50299;49.524;8.536;2022-08-21T19:37:04;100262.00;;;17.86;34.50
64053;BME280;50299;49.524;8.536;2022-08-21T19:39:32;100265.75;;;17.67;35.34
64053;BME280;50299;49.524;8.536;2022-08-21T19:42:04;100269.31;;;17.61;39.20
64053;BME280;50299;49.524;8.536;2022-08-21T19:44:36;100263.31;;;17.62;35.47
64053;BME280;50299;49.524;8.536;2022-08-21T19:47:09;100266.97;;;17.66;36.02
64053;BME280;50299;49.524;8.536;2022-08-21T19:49:49;100273.69;;;17.62;36.21
64053;BME280;50299;49.524;8.536;2022-08-21T19:52:17;100272.94;;;17.65;35.78
64053;BME280;50299;49.524;8.536;2022-08-21T19:54:43;100269.63;;;17.56;35.18
64053;BME280;50299;49.524;8.536;2022-08-21T19:57:10;100270.69;;;17.44;35.51
64053;BME280;50299;49.524;8.536;2022-08-21T19:59:38;100274.66;;;17.43;35.55
64053;BME280;50299;49.524;8.536;2022-08-21T20:02:07;100260.56;;;17.32;35.98
64053;BME280;50299;49.524;8.536;2022-08-21T20:04:34;100262.56;;;17.35;36.97
64053;BME280;50299;49.524;8.536;2022-08-21T20:07:01;100264.28;;;17.43;37.76
64053;BME280;50299;49.524;8.536;2022-08-21T20:09:29;100267.53;;;17.45;37.24
64053;BME280;50299;49.524;8.536;2022-08-21T20:11:57;100267.28;;;17.31;36.21
64053;BME280;50299;49.524;8.536;2022-08-21T20:14:35;100275.84;;;17.12;36.96
64053;BME280;50299;49.524;8.536;2022-08-21T20:17:09;100271.50;;;16.88;37.32
64053;BME280;50299;49.524;8.536;2022-08-21T20:19:38;100275.16;;;16.65;37.99
64053;BME280;50299;49.524;8.536;2022-08-21T20:22:05;100269.56;;;16.65;37.76
64053;BME280;50299;49.524;8.536;2022-08-21T20:24:32;100278.97;;;16.57;38.20